AFL1122 UUEE-URSS
Flight info
| Callsign | AFL1122 |
|---|---|
| Flight time | N/A |
| Altitude | 35000 |
| Route | RILPO DCT DIPGO DCT BUDOM/K0835F320 DCT NIMTA/K0832F330 DCT MOLED N50 LIDUS/K0833F340 G242 ZG/K0835F330 DCT ITAKA/K0835F320 DCT OBBUD DCT AMKOL DCT GOTIK DCT MEMZA DCT VENFO DCT BINOL |
| Aircraft | B738/M-SDE2E3FGHIRWXY/LB1 |
Departure
| Time | 2026-05-07 17:02 |
|---|---|
| Airport | Sheremetyevo International Airport (UUEE) |
Arrival
| Time | N/A |
|---|---|
| Airport | Sochi International Airport (URSS) |
| Time | Latitude | Longitude | Altitude | Speed | Heading |
|---|---|---|---|---|---|
| 2026-05-07 16:13 | 55.97805 | 37.41893 | 638 ft | 0 kts | 304° |
| 2026-05-07 16:46 | 55.97801 | 37.41904 | 641 ft | 4 kts | 304° |
| 2026-05-07 16:47 | 55.97786 | 37.41943 | 643 ft | 4 kts | 304° |
| 2026-05-07 16:47 | 55.97773 | 37.41977 | 644 ft | 4 kts | 326° |
| 2026-05-07 16:47 | 55.97754 | 37.41981 | 641 ft | 4 kts | 37° |
| 2026-05-07 16:47 | 55.97739 | 37.41946 | 639 ft | 3 kts | 75° |
| 2026-05-07 16:48 | 55.97732 | 37.41900 | 645 ft | 4 kts | 75° |
| 2026-05-07 16:48 | 55.97725 | 37.41853 | 640 ft | 4 kts | 75° |
| 2026-05-07 16:48 | 55.97719 | 37.41809 | 641 ft | 2 kts | 75° |
| 2026-05-07 16:48 | 55.97718 | 37.41807 | 646 ft | 0 kts | 75° |
| 2026-05-07 16:53 | 55.97719 | 37.41812 | 640 ft | 1 kts | 76° |
| 2026-05-07 16:53 | 55.97725 | 37.41856 | 638 ft | 6 kts | 76° |
| 2026-05-07 16:53 | 55.97740 | 37.41958 | 640 ft | 10 kts | 75° |
| 2026-05-07 16:54 | 55.97752 | 37.42037 | 642 ft | 10 kts | 77° |
| 2026-05-07 16:54 | 55.97716 | 37.42125 | 638 ft | 10 kts | 158° |
| 2026-05-07 16:54 | 55.97690 | 37.42223 | 645 ft | 9 kts | 81° |
| 2026-05-07 16:54 | 55.97709 | 37.42346 | 643 ft | 12 kts | 75° |
| 2026-05-07 16:55 | 55.97733 | 37.42507 | 639 ft | 15 kts | 75° |
| 2026-05-07 16:55 | 55.97761 | 37.42695 | 642 ft | 16 kts | 75° |
| 2026-05-07 16:55 | 55.97788 | 37.42878 | 638 ft | 15 kts | 75° |
| 2026-05-07 16:55 | 55.97815 | 37.43059 | 639 ft | 16 kts | 75° |
| 2026-05-07 16:56 | 55.97845 | 37.43257 | 640 ft | 17 kts | 75° |
| 2026-05-07 16:56 | 55.97877 | 37.43473 | 642 ft | 19 kts | 75° |
| 2026-05-07 16:56 | 55.97942 | 37.43905 | 641 ft | 12 kts | 75° |
| 2026-05-07 16:57 | 55.97941 | 37.44023 | 640 ft | 10 kts | 137° |
| 2026-05-07 16:57 | 55.97912 | 37.44041 | 641 ft | 0 kts | 167° |
| 2026-05-07 17:00 | 55.97910 | 37.44042 | 638 ft | 1 kts | 167° |
| 2026-05-07 17:00 | 55.97895 | 37.44048 | 642 ft | 3 kts | 167° |
| 2026-05-07 17:00 | 55.97865 | 37.44061 | 639 ft | 5 kts | 167° |
| 2026-05-07 17:00 | 55.97825 | 37.44078 | 639 ft | 7 kts | 171° |
| 2026-05-07 17:01 | 55.97783 | 37.44033 | 639 ft | 9 kts | 253° |
| 2026-05-07 17:01 | 55.97768 | 37.43928 | 640 ft | 10 kts | 256° |
| 2026-05-07 17:01 | 55.97729 | 37.43669 | 641 ft | 48 kts | 255° |
| 2026-05-07 17:01 | 55.97584 | 37.42701 | 641 ft | 112 kts | 255° |
| 2026-05-07 17:02 | 55.97337 | 37.41035 | 641 ft | 164 kts | 257° |
| 2026-05-07 17:02 | 55.97032 | 37.38884 | 931 ft | 186 kts | 256° |
| 2026-05-07 17:02 | 55.96736 | 37.36611 | 1634 ft | 189 kts | 266° |
| 2026-05-07 17:02 | 55.96992 | 37.34340 | 2330 ft | 191 kts | 298° |
| 2026-05-07 17:03 | 55.97928 | 37.32720 | 3160 ft | 188 kts | 330° |
| 2026-05-07 17:03 | 55.99203 | 37.32094 | 3899 ft | 193 kts | 345° |
| 2026-05-07 17:03 | 56.00592 | 37.31838 | 4296 ft | 215 kts | 358° |
| 2026-05-07 17:03 | 56.02154 | 37.32220 | 4495 ft | 237 kts | 4° |
| 2026-05-07 17:04 | 56.03841 | 37.32668 | 4729 ft | 253 kts | 2° |
| 2026-05-07 17:04 | 56.05618 | 37.32887 | 5142 ft | 259 kts | 357° |
| 2026-05-07 17:04 | 56.07425 | 37.33003 | 5720 ft | 261 kts | 356° |
| 2026-05-07 17:04 | 56.09250 | 37.33141 | 6301 ft | 263 kts | 356° |
| 2026-05-07 17:05 | 56.11089 | 37.33304 | 6822 ft | 266 kts | 357° |
| 2026-05-07 17:05 | 56.12944 | 37.33482 | 7347 ft | 269 kts | 357° |
| 2026-05-07 17:05 | 56.14834 | 37.33666 | 7814 ft | 278 kts | 358° |
| 2026-05-07 17:05 | 56.16835 | 37.33856 | 8150 ft | 295 kts | 357° |
| 2026-05-07 17:06 | 56.18906 | 37.34058 | 8771 ft | 300 kts | 357° |
| 2026-05-07 17:06 | 56.21004 | 37.34267 | 9477 ft | 303 kts | 356° |
| 2026-05-07 17:06 | 56.23084 | 37.34474 | 10147 ft | 305 kts | 356° |
| 2026-05-07 17:06 | 56.25253 | 37.34684 | 10456 ft | 323 kts | 356° |
| 2026-05-07 17:07 | 56.27571 | 37.34903 | 10629 ft | 344 kts | 356° |
| 2026-05-07 17:07 | 56.30033 | 37.35138 | 10791 ft | 364 kts | 357° |
| 2026-05-07 17:07 | 56.32621 | 37.35393 | 11109 ft | 378 kts | 358° |
| 2026-05-07 17:07 | 56.35264 | 37.35664 | 11682 ft | 383 kts | 358° |
| 2026-05-07 17:08 | 56.37931 | 37.35940 | 12325 ft | 385 kts | 358° |
| 2026-05-07 17:08 | 56.40618 | 37.36217 | 12965 ft | 389 kts | 358° |
| 2026-05-07 17:08 | 56.43337 | 37.36492 | 13586 ft | 393 kts | 358° |
| 2026-05-07 17:08 | 56.46078 | 37.36768 | 14140 ft | 396 kts | 358° |
| 2026-05-07 17:09 | 56.48834 | 37.37046 | 14774 ft | 397 kts | 358° |
| 2026-05-07 17:09 | 56.51600 | 37.37325 | 15366 ft | 400 kts | 358° |
| 2026-05-07 17:09 | 56.54391 | 37.37605 | 15865 ft | 404 kts | 358° |
| 2026-05-07 17:09 | 56.57214 | 37.37888 | 16402 ft | 408 kts | 358° |
| 2026-05-07 17:10 | 56.60058 | 37.38174 | 16932 ft | 411 kts | 358° |
| 2026-05-07 17:10 | 56.62923 | 37.38616 | 17464 ft | 419 kts | 7° |
| 2026-05-07 17:10 | 56.65659 | 37.40595 | 18017 ft | 432 kts | 30° |
| 2026-05-07 17:10 | 56.67922 | 37.44231 | 18544 ft | 439 kts | 49° |
| 2026-05-07 17:11 | 56.69478 | 37.49017 | 19004 ft | 443 kts | 66° |
| 2026-05-07 17:11 | 56.70676 | 37.54178 | 19528 ft | 443 kts | 68° |
| 2026-05-07 17:11 | 56.71838 | 37.59392 | 19976 ft | 446 kts | 68° |
| 2026-05-07 17:11 | 56.73005 | 37.64652 | 20406 ft | 449 kts | 68° |
| 2026-05-07 17:12 | 56.74190 | 37.69928 | 20828 ft | 452 kts | 67° |
| 2026-05-07 17:12 | 56.75399 | 37.75244 | 21257 ft | 455 kts | 66° |
| 2026-05-07 17:12 | 56.76623 | 37.80580 | 21687 ft | 457 kts | 66° |
| 2026-05-07 17:12 | 56.77855 | 37.85935 | 22102 ft | 460 kts | 66° |
| 2026-05-07 17:13 | 56.79096 | 37.91329 | 22503 ft | 463 kts | 66° |
| 2026-05-07 17:13 | 56.80342 | 37.96759 | 22907 ft | 465 kts | 66° |
| 2026-05-07 17:13 | 56.81575 | 38.02153 | 23305 ft | 468 kts | 66° |
| 2026-05-07 17:13 | 56.82828 | 38.07649 | 23646 ft | 470 kts | 66° |
| 2026-05-07 17:14 | 56.84086 | 38.13180 | 23974 ft | 473 kts | 66° |
| 2026-05-07 17:14 | 56.85339 | 38.18738 | 24337 ft | 474 kts | 68° |
| 2026-05-07 17:14 | 56.86257 | 38.24553 | 24545 ft | 480 kts | 81° |
| 2026-05-07 17:14 | 56.86533 | 38.30643 | 24820 ft | 482 kts | 92° |
| 2026-05-07 17:15 | 56.86207 | 38.36715 | 25166 ft | 481 kts | 103° |
| 2026-05-07 17:15 | 56.85484 | 38.42679 | 25511 ft | 481 kts | 105° |
| 2026-05-07 17:15 | 56.84713 | 38.48639 | 25794 ft | 483 kts | 105° |
| 2026-05-07 17:15 | 56.83932 | 38.54619 | 26058 ft | 485 kts | 105° |
| 2026-05-07 17:16 | 56.83156 | 38.60628 | 26383 ft | 486 kts | 105° |
| 2026-05-07 17:16 | 56.82390 | 38.66649 | 26677 ft | 488 kts | 104° |
| 2026-05-07 17:16 | 56.81629 | 38.72701 | 26939 ft | 490 kts | 104° |
| 2026-05-07 17:16 | 56.80869 | 38.78787 | 27201 ft | 492 kts | 104° |
| 2026-05-07 17:17 | 56.80109 | 38.84886 | 27464 ft | 494 kts | 104° |
| 2026-05-07 17:17 | 56.79343 | 38.91015 | 27744 ft | 496 kts | 104° |
| 2026-05-07 17:17 | 56.78573 | 38.97150 | 27998 ft | 498 kts | 104° |
| 2026-05-07 17:17 | 56.77796 | 39.03309 | 28238 ft | 499 kts | 104° |
| 2026-05-07 17:18 | 56.77012 | 39.09490 | 28479 ft | 501 kts | 104° |
| 2026-05-07 17:18 | 56.76223 | 39.15682 | 28809 ft | 500 kts | 104° |
| 2026-05-07 17:18 | 56.75438 | 39.21817 | 29336 ft | 495 kts | 104° |
| 2026-05-07 17:18 | 56.74654 | 39.27918 | 29736 ft | 493 kts | 104° |
| 2026-05-07 17:19 | 56.73869 | 39.33994 | 29990 ft | 494 kts | 104° |
| 2026-05-07 17:19 | 56.73076 | 39.40106 | 30202 ft | 495 kts | 104° |
| 2026-05-07 17:19 | 56.72281 | 39.46206 | 30475 ft | 495 kts | 104° |
| 2026-05-07 17:19 | 56.71495 | 39.52216 | 30782 ft | 494 kts | 105° |
| 2026-05-07 17:20 | 56.70696 | 39.58295 | 31030 ft | 494 kts | 105° |
| 2026-05-07 17:20 | 56.69895 | 39.64368 | 31281 ft | 494 kts | 105° |
| 2026-05-07 17:20 | 56.69092 | 39.70437 | 31559 ft | 493 kts | 105° |
| 2026-05-07 17:20 | 56.68288 | 39.76483 | 31866 ft | 490 kts | 105° |
| 2026-05-07 17:21 | 56.67488 | 39.82479 | 32279 ft | 486 kts | 105° |
| 2026-05-07 17:21 | 56.66689 | 39.88442 | 32548 ft | 485 kts | 105° |
| 2026-05-07 17:21 | 56.65886 | 39.94410 | 32710 ft | 487 kts | 105° |
| 2026-05-07 17:21 | 56.65078 | 40.00389 | 32889 ft | 488 kts | 105° |
| 2026-05-07 17:22 | 56.64266 | 40.06375 | 33150 ft | 487 kts | 105° |
| 2026-05-07 17:22 | 56.63455 | 40.12329 | 33421 ft | 485 kts | 105° |
| 2026-05-07 17:22 | 56.62643 | 40.18273 | 33648 ft | 485 kts | 105° |
| 2026-05-07 17:22 | 56.61827 | 40.24214 | 33838 ft | 485 kts | 105° |
| 2026-05-07 17:23 | 56.61009 | 40.30155 | 34050 ft | 485 kts | 105° |
| 2026-05-07 17:23 | 56.60191 | 40.36064 | 34292 ft | 481 kts | 105° |
| 2026-05-07 17:23 | 56.59380 | 40.41909 | 34670 ft | 476 kts | 105° |
| 2026-05-07 17:23 | 56.58570 | 40.47723 | 34873 ft | 475 kts | 105° |
| 2026-05-07 17:24 | 56.56934 | 40.59391 | 34903 ft | 480 kts | 105° |
| 2026-05-07 17:24 | 56.55277 | 40.71130 | 34899 ft | 480 kts | 105° |
| 2026-05-07 17:25 | 56.53611 | 40.82840 | 34897 ft | 479 kts | 105° |
| 2026-05-07 17:25 | 56.51938 | 40.94513 | 34883 ft | 479 kts | 105° |
| 2026-05-07 17:26 | 56.50260 | 41.06155 | 34886 ft | 477 kts | 105° |
| 2026-05-07 17:26 | 56.48451 | 41.17694 | 34879 ft | 475 kts | 113° |
| 2026-05-07 17:27 | 56.45475 | 41.28267 | 34892 ft | 471 kts | 121° |
| 2026-05-07 17:27 | 56.42300 | 41.38623 | 34890 ft | 471 kts | 121° |
| 2026-05-07 17:28 | 56.39152 | 41.48981 | 34876 ft | 470 kts | 120° |
| 2026-05-07 17:28 | 56.36027 | 41.59350 | 34887 ft | 470 kts | 120° |
| 2026-05-07 17:29 | 56.32912 | 41.69689 | 34888 ft | 469 kts | 120° |
| 2026-05-07 17:29 | 56.29788 | 41.80017 | 34889 ft | 469 kts | 120° |
| 2026-05-07 17:30 | 56.26654 | 41.90325 | 34887 ft | 469 kts | 120° |
| 2026-05-07 17:30 | 56.23531 | 42.00550 | 34883 ft | 469 kts | 120° |
| 2026-05-07 17:31 | 56.20384 | 42.10809 | 34886 ft | 469 kts | 120° |
| 2026-05-07 17:31 | 56.17223 | 42.21065 | 34885 ft | 469 kts | 120° |
| 2026-05-07 17:32 | 56.14055 | 42.31303 | 34887 ft | 469 kts | 120° |
| 2026-05-07 17:32 | 56.11397 | 42.39861 | 34881 ft | 469 kts | 120° |
| 2026-05-07 17:33 | 56.07697 | 42.51720 | 34886 ft | 469 kts | 120° |
| 2026-05-07 17:33 | 56.04504 | 42.61905 | 34887 ft | 469 kts | 121° |
| 2026-05-07 17:34 | 56.01310 | 42.72051 | 34888 ft | 468 kts | 121° |
| 2026-05-07 17:34 | 55.98103 | 42.82196 | 34890 ft | 468 kts | 121° |
| 2026-05-07 17:35 | 55.94894 | 42.92303 | 34889 ft | 468 kts | 121° |
| 2026-05-07 17:35 | 55.91674 | 43.02402 | 34897 ft | 468 kts | 121° |
| 2026-05-07 17:36 | 55.88451 | 43.12469 | 34899 ft | 468 kts | 121° |
| 2026-05-07 17:36 | 55.85215 | 43.22533 | 34895 ft | 468 kts | 121° |
| 2026-05-07 17:37 | 55.81975 | 43.32567 | 34899 ft | 468 kts | 121° |
| 2026-05-07 17:37 | 55.78726 | 43.42589 | 34915 ft | 467 kts | 121° |
| 2026-05-07 17:38 | 55.75616 | 43.52142 | 34901 ft | 467 kts | 121° |
| 2026-05-07 17:38 | 55.72358 | 43.62107 | 34907 ft | 466 kts | 121° |
| 2026-05-07 17:39 | 55.69657 | 43.70339 | 34910 ft | 466 kts | 121° |
| 2026-05-07 17:39 | 55.66390 | 43.80258 | 34915 ft | 466 kts | 122° |
| 2026-05-07 17:40 | 55.63115 | 43.90164 | 34912 ft | 465 kts | 121° |
| 2026-05-07 17:40 | 55.59840 | 44.00023 | 34914 ft | 465 kts | 122° |
| 2026-05-07 17:41 | 55.56554 | 44.09878 | 34917 ft | 465 kts | 122° |
| 2026-05-07 17:41 | 55.53268 | 44.19695 | 34918 ft | 464 kts | 122° |
| 2026-05-07 17:42 | 55.49974 | 44.29496 | 34920 ft | 464 kts | 122° |
| 2026-05-07 17:42 | 55.46673 | 44.39277 | 34924 ft | 464 kts | 122° |
| 2026-05-07 17:43 | 55.43373 | 44.49017 | 34920 ft | 464 kts | 122° |
| 2026-05-07 17:43 | 55.40074 | 44.58714 | 34930 ft | 465 kts | 122° |
| 2026-05-07 17:44 | 55.36747 | 44.68463 | 34927 ft | 465 kts | 122° |
| 2026-05-07 17:44 | 55.33125 | 44.77807 | 34900 ft | 461 kts | 140° |
| 2026-05-07 17:45 | 55.30496 | 44.80932 | 34943 ft | 456 kts | 157° |
| 2026-05-07 17:45 | 55.27522 | 44.82752 | 34938 ft | 452 kts | 171° |
| 2026-05-07 17:45 | 55.24418 | 44.83206 | 34938 ft | 447 kts | 184° |
| 2026-05-07 17:45 | 55.21314 | 44.82938 | 34947 ft | 447 kts | 185° |
| 2026-05-07 17:46 | 55.15099 | 44.82201 | 34933 ft | 448 kts | 186° |
| 2026-05-07 17:46 | 55.08868 | 44.81484 | 34935 ft | 449 kts | 185° |
| 2026-05-07 17:47 | 55.02625 | 44.80842 | 34940 ft | 450 kts | 185° |
| 2026-05-07 17:47 | 54.96354 | 44.80235 | 34959 ft | 453 kts | 184° |
| 2026-05-07 17:48 | 54.93268 | 44.79941 | 35130 ft | 453 kts | 184° |
| 2026-05-07 17:48 | 54.90075 | 44.79639 | 35396 ft | 450 kts | 184° |
| 2026-05-07 17:48 | 54.86952 | 44.79343 | 35598 ft | 449 kts | 184° |
| 2026-05-07 17:48 | 54.83834 | 44.79047 | 35725 ft | 450 kts | 184° |
| 2026-05-07 17:49 | 54.80780 | 44.78757 | 35829 ft | 450 kts | 184° |
| 2026-05-07 17:49 | 54.77713 | 44.78466 | 35927 ft | 450 kts | 184° |
| 2026-05-07 17:49 | 54.71443 | 44.77871 | 35935 ft | 452 kts | 184° |
| 2026-05-07 17:50 | 54.65178 | 44.77280 | 35938 ft | 450 kts | 184° |
| 2026-05-07 17:50 | 54.58939 | 44.76693 | 35932 ft | 449 kts | 184° |
| 2026-05-07 17:51 | 54.52712 | 44.76108 | 35943 ft | 447 kts | 184° |
| 2026-05-07 17:51 | 54.46497 | 44.75526 | 35942 ft | 447 kts | 184° |
| 2026-05-07 17:52 | 54.40281 | 44.74946 | 35943 ft | 447 kts | 184° |
| 2026-05-07 17:52 | 54.34066 | 44.74368 | 35944 ft | 448 kts | 184° |
| 2026-05-07 17:53 | 54.27832 | 44.73789 | 35947 ft | 449 kts | 184° |
| 2026-05-07 17:53 | 54.21583 | 44.73211 | 35939 ft | 450 kts | 184° |
| 2026-05-07 17:54 | 54.15322 | 44.72634 | 35948 ft | 451 kts | 184° |
| 2026-05-07 17:54 | 54.09038 | 44.72057 | 35953 ft | 452 kts | 184° |
| 2026-05-07 17:55 | 54.02738 | 44.71480 | 35949 ft | 453 kts | 184° |
| 2026-05-07 17:55 | 53.96470 | 44.70907 | 35940 ft | 455 kts | 184° |
| 2026-05-07 17:56 | 53.90146 | 44.70331 | 35947 ft | 455 kts | 184° |
| 2026-05-07 17:56 | 53.83817 | 44.69756 | 35934 ft | 456 kts | 184° |
| 2026-05-07 17:57 | 53.78514 | 44.69276 | 35957 ft | 456 kts | 184° |
| 2026-05-07 17:57 | 53.71149 | 44.68611 | 35954 ft | 456 kts | 184° |
| 2026-05-07 17:58 | 53.64815 | 44.68042 | 35938 ft | 456 kts | 184° |
| 2026-05-07 17:58 | 53.58485 | 44.67474 | 35940 ft | 456 kts | 184° |
| 2026-05-07 17:59 | 53.52154 | 44.66908 | 35948 ft | 455 kts | 184° |
| 2026-05-07 17:59 | 53.45828 | 44.66343 | 35940 ft | 455 kts | 184° |
| 2026-05-07 18:00 | 53.39504 | 44.65781 | 35948 ft | 455 kts | 183° |
| 2026-05-07 18:00 | 53.33189 | 44.65221 | 35951 ft | 455 kts | 183° |
| 2026-05-07 18:01 | 53.26870 | 44.64663 | 35950 ft | 454 kts | 183° |
| 2026-05-07 18:01 | 53.20556 | 44.64107 | 35950 ft | 454 kts | 183° |
| 2026-05-07 18:02 | 53.11083 | 44.63275 | 35958 ft | 454 kts | 184° |
| 2026-05-07 18:03 | 53.04770 | 44.62723 | 35953 ft | 454 kts | 184° |
| 2026-05-07 18:03 | 52.98460 | 44.62172 | 35956 ft | 454 kts | 184° |
| 2026-05-07 18:04 | 52.92147 | 44.61623 | 35952 ft | 454 kts | 184° |
| 2026-05-07 18:04 | 52.85837 | 44.61076 | 35955 ft | 454 kts | 184° |
| 2026-05-07 18:05 | 52.79531 | 44.60531 | 35958 ft | 454 kts | 184° |
| 2026-05-07 18:05 | 52.73223 | 44.59987 | 35954 ft | 454 kts | 183° |
| 2026-05-07 18:06 | 52.66950 | 44.59448 | 35953 ft | 454 kts | 183° |
| 2026-05-07 18:06 | 52.60633 | 44.58907 | 35957 ft | 455 kts | 183° |
| 2026-05-07 18:07 | 52.54308 | 44.58366 | 35956 ft | 455 kts | 183° |
| 2026-05-07 18:07 | 52.47979 | 44.57827 | 35947 ft | 456 kts | 183° |
| 2026-05-07 18:08 | 52.41649 | 44.57289 | 35965 ft | 456 kts | 183° |
| 2026-05-07 18:08 | 52.35308 | 44.56752 | 35963 ft | 456 kts | 183° |
| 2026-05-07 18:09 | 52.28963 | 44.56216 | 35959 ft | 457 kts | 183° |
| 2026-05-07 18:09 | 52.22612 | 44.55681 | 35955 ft | 457 kts | 183° |
| 2026-05-07 18:10 | 52.16258 | 44.55147 | 35951 ft | 457 kts | 184° |
| 2026-05-07 18:10 | 52.09903 | 44.54615 | 35954 ft | 457 kts | 184° |
| 2026-05-07 18:11 | 52.03594 | 44.54088 | 35953 ft | 457 kts | 183° |
| 2026-05-07 18:11 | 51.97240 | 44.53559 | 35959 ft | 457 kts | 183° |
| 2026-05-07 18:12 | 51.90881 | 44.53030 | 35957 ft | 457 kts | 183° |
| 2026-05-07 18:12 | 51.84524 | 44.52504 | 35953 ft | 457 kts | 183° |
| 2026-05-07 18:13 | 51.78170 | 44.51979 | 35953 ft | 457 kts | 183° |
| 2026-05-07 18:13 | 51.71814 | 44.51456 | 35958 ft | 457 kts | 183° |
| 2026-05-07 18:14 | 51.65457 | 44.50934 | 35964 ft | 457 kts | 183° |
| 2026-05-07 18:14 | 51.59095 | 44.50413 | 35965 ft | 458 kts | 183° |
| 2026-05-07 18:15 | 51.52732 | 44.49893 | 35960 ft | 458 kts | 183° |
| 2026-05-07 18:15 | 51.46371 | 44.49375 | 35961 ft | 458 kts | 183° |
| 2026-05-07 18:16 | 51.40121 | 44.48868 | 35957 ft | 458 kts | 183° |
| 2026-05-07 18:16 | 51.33756 | 44.48352 | 35960 ft | 459 kts | 183° |
| 2026-05-07 18:17 | 51.27376 | 44.47837 | 35969 ft | 459 kts | 183° |
| 2026-05-07 18:17 | 51.20993 | 44.47322 | 35956 ft | 459 kts | 183° |
| 2026-05-07 18:18 | 51.14722 | 44.46948 | 35956 ft | 459 kts | 178° |
| 2026-05-07 18:18 | 51.08355 | 44.47769 | 35962 ft | 459 kts | 174° |
| 2026-05-07 18:19 | 51.01996 | 44.48804 | 35961 ft | 460 kts | 174° |
| 2026-05-07 18:19 | 50.95625 | 44.49783 | 35963 ft | 460 kts | 174° |
| 2026-05-07 18:20 | 50.89248 | 44.50702 | 35959 ft | 460 kts | 175° |
| 2026-05-07 18:20 | 50.82867 | 44.51597 | 35965 ft | 461 kts | 175° |
| 2026-05-07 18:21 | 50.76470 | 44.52490 | 35963 ft | 461 kts | 175° |
| 2026-05-07 18:21 | 50.70081 | 44.53382 | 35967 ft | 462 kts | 174° |
| 2026-05-07 18:22 | 50.63673 | 44.54275 | 35962 ft | 462 kts | 174° |
| 2026-05-07 18:22 | 50.57308 | 44.55160 | 35962 ft | 463 kts | 174° |
| 2026-05-07 18:23 | 50.50891 | 44.56050 | 35960 ft | 463 kts | 174° |
| 2026-05-07 18:23 | 50.44474 | 44.56937 | 35968 ft | 463 kts | 174° |
| 2026-05-07 18:24 | 50.38054 | 44.57823 | 35961 ft | 464 kts | 174° |
| 2026-05-07 18:24 | 50.31623 | 44.58707 | 35969 ft | 464 kts | 174° |
| 2026-05-07 18:25 | 50.25196 | 44.59589 | 35967 ft | 464 kts | 174° |
| 2026-05-07 18:25 | 50.18764 | 44.60469 | 35962 ft | 464 kts | 174° |
| 2026-05-07 18:26 | 50.12338 | 44.61345 | 35984 ft | 464 kts | 174° |
| 2026-05-07 18:26 | 50.06999 | 44.62072 | 35966 ft | 464 kts | 174° |
| 2026-05-07 18:27 | 50.00573 | 44.62944 | 35968 ft | 463 kts | 174° |
| 2026-05-07 18:27 | 49.94150 | 44.63814 | 35969 ft | 463 kts | 174° |
| 2026-05-07 18:28 | 49.87732 | 44.64681 | 35969 ft | 463 kts | 174° |
| 2026-05-07 18:28 | 49.81322 | 44.65544 | 35967 ft | 462 kts | 174° |
| 2026-05-07 18:29 | 49.74909 | 44.66405 | 35972 ft | 462 kts | 174° |
| 2026-05-07 18:29 | 49.68497 | 44.67264 | 35976 ft | 462 kts | 174° |
| 2026-05-07 18:30 | 49.62091 | 44.68120 | 35968 ft | 462 kts | 174° |
| 2026-05-07 18:30 | 49.55684 | 44.68974 | 35984 ft | 462 kts | 174° |
| 2026-05-07 18:31 | 49.49271 | 44.69826 | 35975 ft | 463 kts | 175° |
| 2026-05-07 18:31 | 49.42857 | 44.70677 | 35977 ft | 463 kts | 175° |
| 2026-05-07 18:32 | 49.36443 | 44.71525 | 35977 ft | 463 kts | 175° |
| 2026-05-07 18:32 | 49.30193 | 44.72349 | 35982 ft | 462 kts | 175° |
| 2026-05-07 18:33 | 49.23784 | 44.73192 | 35982 ft | 462 kts | 175° |
| 2026-05-07 18:33 | 49.17374 | 44.74032 | 35982 ft | 462 kts | 175° |
| 2026-05-07 18:34 | 49.10967 | 44.74871 | 35982 ft | 462 kts | 175° |
| 2026-05-07 18:34 | 49.04567 | 44.75707 | 35983 ft | 461 kts | 175° |
| 2026-05-07 18:35 | 48.98169 | 44.76540 | 35984 ft | 461 kts | 175° |
| 2026-05-07 18:35 | 48.91783 | 44.77369 | 35999 ft | 460 kts | 175° |
| 2026-05-07 18:36 | 48.85448 | 44.78667 | 35972 ft | 459 kts | 162° |
| 2026-05-07 18:36 | 48.79755 | 44.82858 | 35975 ft | 456 kts | 142° |
| 2026-05-07 18:37 | 48.74788 | 44.88810 | 35982 ft | 455 kts | 140° |
| 2026-05-07 18:37 | 48.69843 | 44.94797 | 35981 ft | 456 kts | 141° |
| 2026-05-07 18:38 | 48.64850 | 45.00734 | 35983 ft | 456 kts | 141° |
| 2026-05-07 18:38 | 48.59837 | 45.06635 | 35979 ft | 457 kts | 141° |
| 2026-05-07 18:39 | 48.54817 | 45.12525 | 35982 ft | 457 kts | 141° |
| 2026-05-07 18:39 | 48.49786 | 45.18418 | 35979 ft | 458 kts | 141° |
| 2026-05-07 18:40 | 48.44744 | 45.24311 | 35973 ft | 459 kts | 141° |
| 2026-05-07 18:40 | 48.39638 | 45.30060 | 35967 ft | 459 kts | 148° |
| 2026-05-07 18:41 | 48.33938 | 45.34390 | 35975 ft | 459 kts | 154° |
| 2026-05-07 18:41 | 48.28206 | 45.38483 | 35974 ft | 460 kts | 154° |
| 2026-05-07 18:42 | 48.22442 | 45.42644 | 35978 ft | 459 kts | 153° |
| 2026-05-07 18:42 | 48.16695 | 45.46834 | 35971 ft | 459 kts | 153° |
| 2026-05-07 18:43 | 48.10951 | 45.51026 | 35970 ft | 459 kts | 153° |
| 2026-05-07 18:43 | 48.05206 | 45.55209 | 35974 ft | 459 kts | 153° |
| 2026-05-07 18:44 | 47.99475 | 45.59368 | 35973 ft | 459 kts | 153° |
| 2026-05-07 18:44 | 47.93731 | 45.63526 | 35974 ft | 458 kts | 153° |
| 2026-05-07 18:45 | 47.87995 | 45.67667 | 35968 ft | 458 kts | 154° |
| 2026-05-07 18:45 | 47.82258 | 45.71800 | 35975 ft | 458 kts | 154° |
| 2026-05-07 18:46 | 47.76518 | 45.75924 | 35974 ft | 458 kts | 153° |
| 2026-05-07 18:46 | 47.70778 | 45.80038 | 35970 ft | 458 kts | 153° |
| 2026-05-07 18:47 | 47.65032 | 45.84147 | 35975 ft | 458 kts | 154° |
| 2026-05-07 18:47 | 47.59279 | 45.88251 | 35977 ft | 459 kts | 154° |
| 2026-05-07 18:48 | 47.53518 | 45.92350 | 35968 ft | 459 kts | 154° |
| 2026-05-07 18:48 | 47.47755 | 45.96441 | 35974 ft | 459 kts | 154° |
| 2026-05-07 18:49 | 47.42964 | 45.99837 | 35973 ft | 460 kts | 154° |